Retreat, Georgia
Current Conditions -  °F | °C
As of 1:58 PM on Friday 24 Oct 2014 (Local Time) from KLHW Reporting Station
Clear Clear  
Wind Chill: 72°   Ceiling: Unl
Heat Index: 72°   Visibility: 10mi
Dew Point: 45°   Wind: 7mph
Humidity: 37%   Direction: 60°ENE
Pressure: 30.01"   Gusts: NA
Location:  31.7217°N, 81.4475°W
Report Text: KLHW 241758Z 06006KT 10SM CLR 22/07 A3001 RMK A02A SLP165 WND DATA ESTMD T02230071 10223 20079 57022
Loading
Personal Weather Stations






























Interactive Weather Map
Tropical Storm Tracking
New forecast layout! Learn more

10-Day Weather Forecast

Advertisements
Track Severe Weather on mobile